Capitol Logistics 1139


EBLG
Liège Airport
Liege, BE
LSGG
Geneve-Cointrin Airport
Geneva, CH

Activity Log

Date Flight Route Aircraft Duration
04/07/2020 CPX1139 LNO8R LNO N852 SUTAL UN852 MOROK UZ24 AKITO AKIT2N B738 1h 12m
11/27/2019 CPX1139 Not Available B738 1h 11m
10/23/2019 CPX739 N0443F330 LNO8R LNO UN852 POGOL ARPUS UN852 MOROK UZ24 AKITO AKIT3R B738 1h 16m
09/30/2019 CPX739 N0420F270 LNO7S LNO UN852 PELIX/N0445F330 UN852 POGOL ARPUS UN852 MOROK UZ24 AKITO AKIT3R B738 1h 10m

Route Details

Aircraft Information
Primary: Boeing 737-800BCF
Backup: Not Available
Route Data
Distance: 283nm
Sched. Duration: 1h 00m
Avg. Duration: 1h 12m (+13m)
Times Flown: 4
Recm'd Route: Not Available
Planned Altitude: 33,000ft
Origin Wx: EBLG 290350Z 06005KT 050V110 CAVOK 09/03 Q1029 NOSIG
Dest. Wx: LSGG 290350Z 05014KT CAVOK 15/05 Q1021 NOSIG
Notes:

Financial History
Total Freight: 128,833lbs
Average Load: 32,208lbs/flt
Fuel Used: 25,360lbs
Avg. Fuel Used: 6,340lbs/flt
Fuel Expense: $28,150
Avg. Fuel Expense: $7,037
Avg. Fuel Cost: $1.11/lbs
Total Gross Income: $270,232
Pilot Pay: $926
Total Expenses: $29,393
Total Revenue: $211,589
Average Revenue: $67,558.10